Time;durP1;ratioP1;P1;durP2;ratioP2;P2;SDS_P1;SDS_P2;PMS_P1;PMS_P2;Temp;Humidity;BMP_temperature;BMP_pressure;BME280_temperature;BME280_humidity;BME280_pressure;Samples;Min_cycle;Max_cycle;Signal;HPM_P1;HPM_P2
2022/06/30 00:01:34;;;;;;;6.50;3.40;;;20.80;99.90;;;;;;4996683;28;20074;-69
2022/06/30 00:04:00;;;;;;;5.43;3.83;;;20.70;99.90;;;;;;4996003;28;20046;-69
2022/06/30 00:06:28;;;;;;;5.82;3.22;;;20.70;99.90;;;;;;4996883;28;20035;-69
2022/06/30 00:08:54;;;;;;;5.00;3.40;;;20.70;99.90;;;;;;4996234;28;20049;-69
2022/06/30 00:11:20;;;;;;;5.35;3.65;;;20.60;99.90;;;;;;4979302;28;20042;-70
2022/06/30 00:13:46;;;;;;;4.65;3.05;;;20.60;99.90;;;;;;4996744;28;20049;-70
2022/06/30 00:16:12;;;;;;;4.53;2.95;;;20.50;99.90;;;;;;4979347;28;20121;-69
2022/06/30 00:18:38;;;;;;;5.82;3.10;;;20.50;99.90;;;;;;4979245;28;20133;-70
2022/06/30 00:21:04;;;;;;;6.25;3.33;;;20.50;99.90;;;;;;4979177;28;20042;-70
2022/06/30 00:23:30;;;;;;;5.20;3.30;;;20.40;99.90;;;;;;4996630;28;20081;-70
2022/06/30 00:25:56;;;;;;;6.03;2.90;;;20.30;99.90;;;;;;4978890;28;20078;-70
2022/06/30 00:28:22;;;;;;;8.00;3.00;;;20.20;99.90;;;;;;4979318;28;20189;-70
2022/06/30 00:30:52;;;;;;;11.55;2.92;;;20.10;99.90;;;;;;4979007;28;20105;-71
2022/06/30 00:33:18;;;;;;;5.45;2.72;;;20.10;99.90;;;;;;4996333;28;20371;-70
2022/06/30 00:35:45;;;;;;;4.72;2.83;;;20.00;99.90;;;;;;4978717;28;20470;-70
2022/06/30 00:38:11;;;;;;;5.95;2.78;;;19.90;99.90;;;;;;4978497;28;20121;-70
2022/06/30 00:40:46;;;;;;;3.50;2.42;;;19.80;99.90;;;;;;4996110;28;20192;-69
2022/06/30 00:43:13;;;;;;;4.97;2.83;;;19.80;99.90;;;;;;4978840;28;20057;-69
2022/06/30 00:45:43;;;;;;;4.47;2.65;;;19.70;99.90;;;;;;4995455;28;20344;-70
2022/06/30 00:48:13;;;;;;;5.18;2.75;;;19.60;99.90;;;;;;4996234;28;20050;-69
2022/06/30 00:50:39;;;;;;;3.45;2.45;;;19.60;99.90;;;;;;4967261;28;20064;-69
2022/06/30 00:53:10;;;;;;;6.68;2.42;;;19.50;99.90;;;;;;5015066;28;20049;-69
2022/06/30 00:55:37;;;;;;;6.97;2.75;;;19.50;99.90;;;;;;5015568;28;20089;-70
2022/06/30 00:58:08;;;;;;;4.57;2.78;;;19.40;99.90;;;;;;4998032;28;20108;-70
2022/06/30 01:00:38;;;;;;;5.30;2.63;;;19.40;99.90;;;;;;4981723;28;20052;-69
2022/06/30 01:03:05;;;;;;;3.85;2.50;;;19.40;99.90;;;;;;5015343;28;20129;-69
2022/06/30 01:05:31;;;;;;;5.07;2.80;;;19.30;99.90;;;;;;4998084;28;20113;-69
2022/06/30 01:07:57;;;;;;;5.88;2.80;;;19.30;99.90;;;;;;5015174;28;20078;-70
2022/06/30 01:13:07;;;;;;;5.97;2.60;;;19.20;99.90;;;;;;5015071;28;20050;-70
2022/06/30 01:15:36;;;;;;;4.03;2.70;;;19.20;99.90;;;;;;4997694;28;20370;-70
2022/06/30 01:18:01;;;;;;;4.47;2.88;;;19.30;99.90;;;;;;5015274;28;20126;-70
2022/06/30 01:20:30;;;;;;;5.82;3.10;;;19.20;99.90;;;;;;4997974;28;20125;-69
2022/06/30 01:22:59;;;;;;;5.30;2.85;;;19.20;99.90;;;;;;4997878;28;20358;-70
2022/06/30 01:25:25;;;;;;;5.80;3.15;;;19.10;99.90;;;;;;4997762;28;20050;-70
2022/06/30 01:27:52;;;;;;;4.97;2.75;;;19.10;99.90;;;;;;4997456;28;20433;-70
2022/06/30 01:30:18;;;;;;;5.90;3.53;;;19.00;99.90;;;;;;5015118;28;20085;-69
2022/06/30 01:32:43;;;;;;;4.90;2.97;;;19.00;99.90;;;;;;4997864;28;20049;-70
2022/06/30 01:35:10;;;;;;;5.22;2.97;;;19.00;99.90;;;;;;5015069;28;20048;-69
2022/06/30 01:37:59;;;;;;;5.57;2.83;;;19.10;99.90;;;;;;4996738;28;20075;-72
2022/06/30 01:40:30;;;;;;;6.32;2.75;;;19.00;99.90;;;;;;4981098;28;20108;-69
2022/06/30 01:42:59;;;;;;;4.10;3.03;;;19.00;99.90;;;;;;4995410;28;20050;-68
2022/06/30 01:45:24;;;;;;;5.60;3.15;;;19.00;99.90;;;;;;4977887;28;20185;-69
2022/06/30 01:47:51;;;;;;;4.45;2.97;;;19.00;99.90;;;;;;4995448;28;20371;-69
2022/06/30 01:50:20;;;;;;;5.07;3.55;;;19.00;99.90;;;;;;4992786;28;20049;-69
2022/06/30 01:52:45;;;;;;;4.20;2.72;;;19.00;99.90;;;;;;4958477;28;20137;-69
2022/06/30 01:55:12;;;;;;;4.22;2.90;;;19.00;99.90;;;;;;4975935;28;20476;-68
2022/06/30 01:57:38;;;;;;;5.88;3.15;;;19.00;99.90;;;;;;4977179;28;20065;-69
2022/06/30 02:00:11;;;;;;;4.90;2.95;;;19.00;99.90;;;;;;4978186;28;20101;-69
2022/06/30 02:02:37;;;;;;;6.63;3.25;;;19.00;99.90;;;;;;4977640;28;20050;-69
2022/06/30 02:05:03;;;;;;;7.28;3.17;;;18.90;99.90;;;;;;4995415;28;20050;-70
2022/06/30 02:07:29;;;;;;;6.82;3.40;;;18.90;99.90;;;;;;4977985;28;20451;-69
2022/06/30 02:09:55;;;;;;;5.38;3.53;;;18.80;99.90;;;;;;4978657;28;20050;-70
2022/06/30 02:15:12;;;;;;;4.97;2.80;;;18.80;99.90;;;;;;4995150;28;20046;-70
2022/06/30 02:17:38;;;;;;;6.68;3.30;;;18.70;99.90;;;;;;4995175;28;20050;-69
2022/06/30 02:20:07;;;;;;;7.60;3.10;;;18.60;99.90;;;;;;4978458;28;20078;-69
2022/06/30 02:22:36;;;;;;;7.10;3.45;;;18.60;99.90;;;;;;4977354;28;20038;-70
2022/06/30 02:25:03;;;;;;;4.97;3.20;;;18.60;99.90;;;;;;4995410;28;20054;-70
2022/06/30 02:27:28;;;;;;;6.90;3.22;;;18.50;99.90;;;;;;4998890;28;20034;-70
2022/06/30 02:29:57;;;;;;;6.78;3.05;;;18.40;99.90;;;;;;4981232;28;20042;-69
2022/06/30 02:32:22;;;;;;;6.55;3.22;;;18.40;99.90;;;;;;4982148;28;20050;-69
2022/06/30 02:34:49;;;;;;;4.90;3.15;;;18.30;99.90;;;;;;4998589;28;20113;-70
2022/06/30 02:37:15;;;;;;;5.90;3.60;;;18.30;99.90;;;;;;4998422;28;20454;-69
2022/06/30 02:39:41;;;;;;;4.70;3.28;;;18.20;99.90;;;;;;4997238;28;20057;-69
2022/06/30 02:42:07;;;;;;;7.18;3.03;;;18.20;99.90;;;;;;4998735;28;20340;-71
2022/06/30 02:44:33;;;;;;;5.40;3.45;;;18.10;99.90;;;;;;4981111;28;20073;-69
2022/06/30 02:46:59;;;;;;;5.10;3.13;;;18.10;99.90;;;;;;4997983;28;20450;-69
2022/06/30 02:49:24;;;;;;;4.97;2.55;;;18.10;99.90;;;;;;4981198;28;20050;-68
2022/06/30 02:51:53;;;;;;;5.45;3.38;;;18.00;99.90;;;;;;4994996;28;20061;-68
2022/06/30 02:54:19;;;;;;;5.75;3.08;;;18.00;99.90;;;;;;5016474;28;20061;-69
2022/06/30 02:56:45;;;;;;;6.60;3.10;;;17.90;99.90;;;;;;5016765;28;20046;-70
2022/06/30 02:59:11;;;;;;;4.60;3.05;;;17.90;99.90;;;;;;5017660;28;20429;-70
2022/06/30 03:01:36;;;;;;;6.55;3.35;;;17.90;99.90;;;;;;5000205;28;20259;-70
2022/06/30 03:04:03;;;;;;;3.95;2.80;;;17.80;99.90;;;;;;5017524;28;20487;-69
2022/06/30 03:06:33;;;;;;;7.88;3.20;;;17.80;99.90;;;;;;5016867;28;20410;-69
2022/06/30 03:09:03;;;;;;;4.68;2.85;;;17.80;99.90;;;;;;4999991;28;20400;-69
2022/06/30 03:11:29;;;;;;;4.28;3.10;;;17.80;99.90;;;;;;5000238;28;20038;-69
2022/06/30 03:13:55;;;;;;;4.97;2.95;;;17.70;99.90;;;;;;5000289;28;20037;-68
2022/06/30 03:16:20;;;;;;;4.88;2.85;;;17.80;99.90;;;;;;4983675;28;20045;-69
2022/06/30 03:18:46;;;;;;;4.28;2.80;;;17.70;99.90;;;;;;4999994;28;20116;-69
2022/06/30 03:21:12;;;;;;;4.10;3.10;;;17.70;99.90;;;;;;5000317;28;20056;-69
2022/06/30 03:23:38;;;;;;;4.35;3.00;;;17.70;99.90;;;;;;4983498;28;20096;-70
2022/06/30 03:26:05;;;;;;;4.38;3.22;;;17.70;99.90;;;;;;4999364;28;20077;-69
2022/06/30 03:28:31;;;;;;;6.65;3.45;;;17.70;99.90;;;;;;4999802;28;20041;-69
2022/06/30 03:30:56;;;;;;;6.93;3.22;;;17.70;99.90;;;;;;5017437;28;20030;-70
2022/06/30 03:33:22;;;;;;;5.10;3.10;;;17.60;99.90;;;;;;5017021;28;20099;-68
2022/06/30 03:35:48;;;;;;;4.15;2.88;;;17.70;99.90;;;;;;4999567;28;20424;-70
2022/06/30 03:38:14;;;;;;;9.38;2.90;;;17.70;99.90;;;;;;4982570;28;20112;-70
2022/06/30 03:40:40;;;;;;;5.05;3.50;;;17.60;99.90;;;;;;5016669;28;20343;-69
2022/06/30 03:43:09;;;;;;;4.90;3.17;;;17.60;99.90;;;;;;5016552;28;20120;-70
2022/06/30 03:45:35;;;;;;;4.63;3.00;;;17.60;99.90;;;;;;4999436;28;20386;-69
2022/06/30 03:48:02;;;;;;;4.63;3.05;;;17.60;99.90;;;;;;4999364;28;20057;-69
2022/06/30 03:50:28;;;;;;;4.78;3.28;;;17.60;99.90;;;;;;5016530;28;20054;-70
2022/06/30 03:52:54;;;;;;;5.00;3.00;;;17.60;99.90;;;;;;5016490;28;20049;-69
2022/06/30 03:55:20;;;;;;;4.20;3.00;;;17.60;99.90;;;;;;4998855;28;20052;-70
2022/06/30 03:57:46;;;;;;;7.00;3.65;;;17.60;99.90;;;;;;4983666;28;20049;-68
2022/06/30 04:00:23;;;;;;;6.07;3.00;;;17.60;99.90;;;;;;5017471;28;20042;-69
2022/06/30 04:02:49;;;;;;;6.25;3.63;;;17.60;99.90;;;;;;5016982;28;20060;-69
2022/06/30 04:05:14;;;;;;;5.85;2.92;;;17.60;99.90;;;;;;4998100;28;20044;-70
2022/06/30 04:07:45;;;;;;;5.32;3.22;;;17.60;99.90;;;;;;5016080;28;20034;-70
2022/06/30 04:10:13;;;;;;;5.88;3.65;;;17.60;99.90;;;;;;5016012;28;20403;-69
2022/06/30 04:12:39;;;;;;;6.95;3.58;;;17.60;99.90;;;;;;4996527;28;20502;-70
2022/06/30 04:15:06;;;;;;;4.80;3.33;;;17.60;99.90;;;;;;4997643;28;20041;-69
2022/06/30 04:17:34;;;;;;;6.45;2.83;;;17.60;99.90;;;;;;4998768;28;20059;-69
2022/06/30 04:20:01;;;;;;;4.50;3.00;;;17.70;99.90;;;;;;4999199;28;20042;-69
2022/06/30 04:22:27;;;;;;;5.20;3.22;;;17.70;99.90;;;;;;4998433;28;20042;-73
2022/06/30 04:24:52;;;;;;;6.55;3.13;;;17.70;99.90;;;;;;5015869;28;20121;-71
2022/06/30 04:27:18;;;;;;;8.15;3.38;;;17.70;99.90;;;;;;4982591;28;20046;-70
2022/06/30 04:29:44;;;;;;;5.47;3.40;;;17.80;99.90;;;;;;5015901;28;20037;-70
2022/06/30 04:34:54;;;;;;;5.25;3.28;;;17.80;99.90;;;;;;5013638;28;20120;-69
2022/06/30 04:37:20;;;;;;;5.72;3.08;;;17.80;99.90;;;;;;4998372;28;20407;-69
2022/06/30 04:39:45;;;;;;;4.78;3.58;;;17.80;99.90;;;;;;5015720;28;20044;-69
2022/06/30 04:42:11;;;;;;;4.53;3.15;;;17.80;99.90;;;;;;4998189;28;20056;-69
2022/06/30 04:44:36;;;;;;;6.57;3.63;;;17.90;99.90;;;;;;4998792;28;20085;-69
2022/06/30 04:47:02;;;;;;;8.32;3.50;;;17.90;99.90;;;;;;4998395;28;20038;-69
2022/06/30 04:49:28;;;;;;;6.03;3.50;;;17.90;99.90;;;;;;4997917;28;20100;-69
2022/06/30 04:51:56;;;;;;;5.45;3.38;;;18.00;99.90;;;;;;4997102;28;20058;-70
2022/06/30 04:54:21;;;;;;;5.65;3.40;;;18.00;99.90;;;;;;5015710;28;20340;-70
2022/06/30 04:56:50;;;;;;;4.90;3.35;;;18.10;99.90;;;;;;4998067;28;20057;-70
2022/06/30 04:59:16;;;;;;;5.95;3.33;;;18.10;99.90;;;;;;4997409;28;20081;-70
2022/06/30 05:01:42;;;;;;;4.20;3.10;;;18.10;99.90;;;;;;5015568;28;20077;-70
2022/06/30 05:04:07;;;;;;;4.93;3.33;;;18.30;99.90;;;;;;5015426;28;20131;-70
2022/06/30 05:06:33;;;;;;;5.15;2.92;;;18.40;99.90;;;;;;4997549;28;20477;-70
2022/06/30 05:09:01;;;;;;;6.22;3.92;;;18.50;99.90;;;;;;4998039;28;20052;-68
2022/06/30 05:11:27;;;;;;;4.28;3.10;;;18.50;99.90;;;;;;4998018;28;20042;-68
2022/06/30 05:13:56;;;;;;;4.85;3.10;;;18.60;99.90;;;;;;5015662;28;20037;-71
2022/06/30 05:16:24;;;;;;;9.93;3.17;;;18.90;99.90;;;;;;4997373;28;20485;-71
2022/06/30 05:18:53;;;;;;;4.60;3.38;;;19.90;99.90;;;;;;4998084;28;20042;-71
2022/06/30 05:21:18;;;;;;;8.45;3.17;;;21.00;99.90;;;;;;4997324;28;20046;-69
2022/06/30 05:26:28;;;;;;;7.55;3.67;;;21.60;99.90;;;;;;4998161;28;20448;-70
2022/06/30 05:26:29;;;;;;;4.68;2.92;;;21.90;99.90;;;;;;4995185;28;20104;-71
2022/06/30 05:28:55;;;;;;;4.97;3.10;;;22.80;99.90;;;;;;4978276;28;20447;-70
2022/06/30 05:31:20;;;;;;;5.35;3.13;;;23.40;99.90;;;;;;4995589;28;20113;-70
2022/06/30 05:33:46;;;;;;;9.48;3.25;;;24.30;99.90;;;;;;4978131;28;20459;-71
2022/06/30 05:36:12;;;;;;;4.00;2.47;;;24.80;99.90;;;;;;4977895;28;20101;-70
2022/06/30 05:38:37;;;;;;;5.10;3.10;;;25.40;99.90;;;;;;4979279;28;20450;-70
2022/06/30 05:41:03;;;;;;;3.47;2.15;;;25.80;99.80;;;;;;4997736;28;20184;-70
2022/06/30 05:43:29;;;;;;;6.45;2.85;;;26.50;98.80;;;;;;4997848;28;20433;-69
2022/06/30 05:45:57;;;;;;;6.93;3.05;;;26.70;99.00;;;;;;4997624;28;20540;-71
2022/06/30 05:48:26;;;;;;;4.18;2.75;;;27.10;98.20;;;;;;5015143;28;20034;-70
2022/06/30 05:50:54;;;;;;;4.60;2.45;;;27.30;98.10;;;;;;5014815;28;20383;-70
2022/06/30 05:53:20;;;;;;;5.72;2.65;;;27.80;97.40;;;;;;4980967;28;20116;-69
2022/06/30 05:55:46;;;;;;;5.93;3.17;;;28.00;96.20;;;;;;5015085;28;20475;-70
2022/06/30 05:58:16;;;;;;;3.42;2.33;;;28.10;95.70;;;;;;4997737;28;20038;-71
2022/06/30 06:00:42;;;;;;;4.22;2.65;;;28.60;96.30;;;;;;5016263;28;20438;-71
2022/06/30 06:03:07;;;;;;;3.42;2.47;;;28.30;95.20;;;;;;5018645;28;20057;-70
2022/06/30 06:05:33;;;;;;;5.15;2.38;;;28.40;96.10;;;;;;5017801;28;20447;-70
2022/06/30 06:08:10;;;;;;;3.78;2.05;;;28.60;96.10;;;;;;5001287;28;20431;-71
2022/06/30 06:10:36;;;;;;;5.68;2.72;;;29.10;95.60;;;;;;5001223;28;20100;-71
2022/06/30 06:13:03;;;;;;;5.72;2.55;;;29.40;94.10;;;;;;5018842;28;20046;-69
2022/06/30 06:15:28;;;;;;;4.05;2.30;;;29.50;94.10;;;;;;5000920;28;20054;-69
2022/06/30 06:17:54;;;;;;;4.15;2.30;;;29.50;94.50;;;;;;5000883;28;20042;-71
2022/06/30 06:20:20;;;;;;;3.78;2.42;;;29.00;94.30;;;;;;5017906;28;20089;-70
2022/06/30 06:22:46;;;;;;;4.97;2.15;;;29.20;94.50;;;;;;5018200;28;20361;-71
2022/06/30 06:25:13;;;;;;;3.80;2.42;;;29.30;94.20;;;;;;5018350;28;20038;-70
2022/06/30 06:27:39;;;;;;;6.00;2.42;;;29.40;94.10;;;;;;5000917;28;20370;-69
2022/06/30 06:30:07;;;;;;;3.33;2.22;;;29.50;93.70;;;;;;5001045;28;20074;-71
2022/06/30 06:32:33;;;;;;;3.78;2.10;;;29.50;93.50;;;;;;5017902;28;20454;-70
2022/06/30 06:35:01;;;;;;;7.90;2.42;;;29.60;93.40;;;;;;4984591;28;20042;-70
2022/06/30 06:37:27;;;;;;;4.05;2.25;;;29.80;92.90;;;;;;5017887;28;20073;-69
2022/06/30 06:39:52;;;;;;;7.50;2.78;;;29.50;93.40;;;;;;5018181;28;20076;-71
2022/06/30 06:42:18;;;;;;;3.47;2.20;;;29.20;93.40;;;;;;5000589;28;20041;-70
2022/06/30 06:44:43;;;;;;;3.97;2.28;;;29.60;93.40;;;;;;5001305;28;20045;-70
2022/06/30 06:47:12;;;;;;;4.72;2.35;;;30.10;93.20;;;;;;5000829;28;20042;-70
2022/06/30 06:49:38;;;;;;;5.40;2.20;;;30.00;93.10;;;;;;5017765;28;20068;-70
2022/06/30 06:52:07;;;;;;;5.38;2.13;;;30.30;93.10;;;;;;4999994;28;20129;-69
2022/06/30 06:54:32;;;;;;;4.78;2.42;;;30.70;93.50;;;;;;5018070;28;20173;-70
2022/06/30 06:56:58;;;;;;;3.65;2.30;;;30.50;92.60;;;;;;5000254;28;20120;-70
2022/06/30 06:59:23;;;;;;;3.55;2.03;;;30.90;92.80;;;;;;5017204;28;20121;-71
2022/06/30 07:01:50;;;;;;;4.60;2.08;;;31.30;92.70;;;;;;5017645;28;20030;-70
2022/06/30 07:04:15;;;;;;;4.45;2.30;;;31.70;92.60;;;;;;4983799;28;20483;-69
2022/06/30 07:06:41;;;;;;;4.78;2.22;;;32.10;91.80;;;;;;5017524;28;20038;-70
2022/06/30 07:09:06;;;;;;;3.97;2.40;;;31.90;92.00;;;;;;5000713;28;20049;-71
2022/06/30 07:11:32;;;;;;;5.82;2.33;;;31.90;91.70;;;;;;5000033;28;20502;-70
2022/06/30 07:13:57;;;;;;;3.75;2.08;;;31.80;91.90;;;;;;4999585;28;20425;-70
2022/06/30 07:16:23;;;;;;;5.85;2.58;;;32.00;92.20;;;;;;5000384;28;20046;-69
2022/06/30 07:18:49;;;;;;;5.50;2.25;;;32.20;91.60;;;;;;5000199;28;20462;-70
2022/06/30 07:21:15;;;;;;;5.30;1.77;;;32.30;91.20;;;;;;4983504;28;20509;-71
2022/06/30 07:23:42;;;;;;;3.78;1.90;;;32.20;92.00;;;;;;5017307;28;20045;-69
2022/06/30 07:26:08;;;;;;;3.50;2.28;;;32.00;91.30;;;;;;5016980;28;20096;-70
2022/06/30 07:28:36;;;;;;;5.57;2.53;;;31.80;91.20;;;;;;4999349;28;20041;-70
2022/06/30 07:31:05;;;;;;;5.93;2.10;;;31.70;91.60;;;;;;4999308;28;20462;-69
2022/06/30 07:33:31;;;;;;;10.25;2.78;;;32.00;91.90;;;;;;5017123;28;20052;-72
2022/06/30 07:35:58;;;;;;;5.78;2.20;;;32.30;91.80;;;;;;5016858;28;20046;-70
2022/06/30 07:38:23;;;;;;;9.02;2.33;;;31.80;91.50;;;;;;5000293;28;20038;-69
2022/06/30 07:40:49;;;;;;;6.47;2.22;;;31.70;91.40;;;;;;5016784;28;20034;-70
2022/06/30 07:43:15;;;;;;;4.32;2.40;;;31.80;91.80;;;;;;4998909;28;20347;-70
2022/06/30 07:45:40;;;;;;;4.03;2.17;;;31.90;91.40;;;;;;4999361;28;20061;-70
2022/06/30 07:48:06;;;;;;;5.25;2.50;;;31.50;91.70;;;;;;4999426;28;20472;-71
2022/06/30 07:50:32;;;;;;;5.20;2.58;;;31.80;92.20;;;;;;4999014;28;20065;-71
2022/06/30 07:52:57;;;;;;;5.75;2.00;;;32.10;91.70;;;;;;4999169;28;20128;-69
2022/06/30 07:55:23;;;;;;;8.80;2.88;;;32.50;91.90;;;;;;5016705;28;20046;-70
2022/06/30 07:57:49;;;;;;;3.03;1.92;;;32.50;91.00;;;;;;4999370;28;20046;-70
2022/06/30 08:00:24;;;;;;;6.10;2.97;;;32.40;91.50;;;;;;4999166;28;20073;-70
2022/06/30 08:02:51;;;;;;;5.72;2.40;;;32.70;91.70;;;;;;5016515;28;20069;-71
2022/06/30 08:05:17;;;;;;;10.48;2.28;;;32.90;91.40;;;;;;4999081;28;20049;-69
2022/06/30 08:07:42;;;;;;;4.78;2.10;;;32.90;91.20;;;;;;5016432;28;20092;-70
2022/06/30 08:10:08;;;;;;;5.60;2.30;;;32.60;91.50;;;;;;4999411;28;20046;-70
2022/06/30 08:12:35;;;;;;;3.85;2.20;;;32.70;91.80;;;;;;4998733;28;20042;-72
2022/06/30 08:15:01;;;;;;;4.03;2.78;;;33.00;91.40;;;;;;4998625;28;20482;-70
2022/06/30 08:17:28;;;;;;;4.13;2.33;;;32.80;91.00;;;;;;4998762;28;20049;-71
2022/06/30 08:19:53;;;;;;;3.80;2.30;;;32.70;91.40;;;;;;4999351;28;20045;-71
2022/06/30 08:22:19;;;;;;;5.00;2.20;;;33.30;91.70;;;;;;4998959;28;20041;-70
2022/06/30 08:24:45;;;;;;;7.38;2.60;;;33.10;91.30;;;;;;4982079;28;20049;-71
2022/06/30 08:27:10;;;;;;;3.47;2.33;;;32.80;91.00;;;;;;4998595;28;20078;-70
2022/06/30 08:29:36;;;;;;;5.45;2.80;;;32.80;91.40;;;;;;4998572;28;20049;-70
2022/06/30 08:32:07;;;;;;;7.93;2.97;;;32.40;91.30;;;;;;4998530;28;20160;-69
2022/06/30 08:34:32;;;;;;;4.50;2.53;;;32.10;91.60;;;;;;5015849;28;20042;-72
2022/06/30 08:36:58;;;;;;;4.75;2.53;;;32.30;91.70;;;;;;5015841;28;20041;-70
2022/06/30 08:42:09;;;;;;;5.75;3.05;;;32.00;92.00;;;;;;4997977;28;20057;-70
2022/06/30 08:44:36;;;;;;;5.43;2.95;;;32.10;92.70;;;;;;4978786;28;20046;-69
2022/06/30 08:47:04;;;;;;;5.93;3.17;;;32.20;92.10;;;;;;4995836;28;20042;-70
2022/06/30 08:49:31;;;;;;;6.63;3.22;;;32.30;92.40;;;;;;4978593;28;20126;-70
2022/06/30 08:51:59;;;;;;;5.28;2.50;;;32.50;92.30;;;;;;4978619;28;20061;-70
2022/06/30 08:54:26;;;;;;;5.53;3.05;;;32.90;92.50;;;;;;4962292;28;20478;-71
2022/06/30 08:56:57;;;;;;;4.68;2.97;;;32.70;91.80;;;;;;4978718;28;20057;-70
2022/06/30 08:59:24;;;;;;;5.47;3.00;;;32.30;91.50;;;;;;4997666;28;20078;-70
2022/06/30 09:01:54;;;;;;;5.22;3.05;;;32.30;92.20;;;;;;5015479;28;20107;-70
2022/06/30 09:04:21;;;;;;;8.15;2.55;;;32.20;92.20;;;;;;4997772;28;20497;-71
2022/06/30 09:06:50;;;;;;;5.90;2.83;;;32.40;92.50;;;;;;4981612;28;20513;-70
2022/06/30 09:09:16;;;;;;;5.40;2.72;;;32.20;92.10;;;;;;4998324;28;20054;-71
2022/06/30 09:11:49;;;;;;;5.53;3.10;;;32.00;92.10;;;;;;4997214;28;20049;-70
2022/06/30 09:14:40;;;;;;;6.60;2.88;;;31.80;91.70;;;;;;5014883;28;20430;-70
2022/06/30 09:17:20;;;;;;;4.15;2.92;;;31.60;92.80;;;;;;4998133;28;20057;-72
2022/06/30 09:20:00;;;;;;;4.72;3.22;;;31.90;92.40;;;;;;4997841;28;20042;-71
2022/06/30 09:22:34;;;;;;;5.97;3.10;;;31.70;92.70;;;;;;4997677;28;20476;-70
2022/06/30 09:25:07;;;;;;;4.63;3.30;;;31.50;92.80;;;;;;4997521;28;20060;-71
2022/06/30 09:27:41;;;;;;;5.50;3.15;;;31.50;93.10;;;;;;5014973;28;20033;-70
2022/06/30 09:30:11;;;;;;;5.50;2.90;;;31.60;93.30;;;;;;4997417;28;20088;-70
2022/06/30 09:33:02;;;;;;;5.97;3.75;;;31.40;92.90;;;;;;4997118;28;20198;-69
2022/06/30 09:35:30;;;;;;;14.63;3.20;;;31.00;92.60;;;;;;5014237;28;20051;-72
2022/06/30 09:38:02;;;;;;;6.88;3.10;;;30.90;93.40;;;;;;4997536;28;20125;-71
2022/06/30 09:41:04;;;;;;;4.07;2.90;;;30.60;93.60;;;;;;4997594;28;20049;-71
2022/06/30 09:43:31;;;;;;;6.07;3.08;;;30.60;93.30;;;;;;4997353;28;20469;-70
2022/06/30 09:45:57;;;;;;;5.65;3.33;;;30.70;94.00;;;;;;4997903;28;20056;-70
2022/06/30 09:48:26;;;;;;;5.10;3.55;;;30.60;93.50;;;;;;4997018;28;20046;-71
2022/06/30 09:51:00;;;;;;;5.18;3.58;;;30.80;93.20;;;;;;5015081;28;20042;-71
2022/06/30 09:53:26;;;;;;;5.90;3.10;;;30.80;92.90;;;;;;4981136;28;20121;-71
2022/06/30 09:55:51;;;;;;;7.18;3.20;;;31.00;93.50;;;;;;4997286;28;20416;-69
2022/06/30 09:58:26;;;;;;;4.93;3.05;;;31.00;94.00;;;;;;4997426;28;20081;-71
2022/06/30 10:00:52;;;;;;;6.82;3.10;;;31.00;93.60;;;;;;4997386;28;20125;-71
2022/06/30 10:03:19;;;;;;;5.13;3.42;;;31.00;93.40;;;;;;4997142;28;20041;-70
2022/06/30 10:05:47;;;;;;;6.57;3.05;;;31.00;92.80;;;;;;4980939;28;20046;-70
2022/06/30 10:08:14;;;;;;;5.13;3.10;;;30.80;93.10;;;;;;4997622;28;20124;-70
2022/06/30 10:10:44;;;;;;;4.72;3.20;;;30.80;92.90;;;;;;4997127;28;20045;-70
2022/06/30 10:13:14;;;;;;;5.68;3.08;;;30.70;93.30;;;;;;4997250;28;20037;-71
2022/06/30 10:15:40;;;;;;;6.75;3.55;;;31.10;93.90;;;;;;4980979;28;20042;-71
2022/06/30 10:18:08;;;;;;;6.55;2.97;;;31.30;93.20;;;;;;5014045;28;20093;-71
2022/06/30 10:20:38;;;;;;;4.07;2.90;;;31.30;93.20;;;;;;4997151;28;20071;-71
2022/06/30 10:23:06;;;;;;;5.88;2.88;;;31.60;93.50;;;;;;5014669;28;20069;-70
2022/06/30 10:25:32;;;;;;;6.03;3.63;;;31.90;93.40;;;;;;4997071;28;20377;-71
2022/06/30 10:27:59;;;;;;;4.32;3.33;;;32.10;93.20;;;;;;5014689;28;20108;-70
2022/06/30 10:30:34;;;;;;;9.45;3.97;;;32.30;93.00;;;;;;4997218;28;20041;-71
2022/06/30 10:33:14;;;;;;;8.25;3.85;;;32.60;93.30;;;;;;4991143;28;20193;-71
2022/06/30 10:35:54;;;;;;;10.55;3.75;;;32.40;92.00;;;;;;4996563;28;20057;-70
2022/06/30 10:38:52;;;;;;;8.80;3.42;;;32.30;92.10;;;;;;4997215;28;20057;-71
2022/06/30 10:41:20;;;;;;;5.53;3.00;;;32.40;93.30;;;;;;4997026;28;20057;-71
2022/06/30 10:44:08;;;;;;;5.85;3.38;;;32.40;93.00;;;;;;5014426;28;20137;-70
2022/06/30 10:46:51;;;;;;;7.78;3.67;;;32.50;92.20;;;;;;4981956;28;20078;-70
2022/06/30 10:49:17;;;;;;;6.18;3.83;;;31.90;92.30;;;;;;5017757;28;20050;-70
2022/06/30 10:51:45;;;;;;;5.38;3.50;;;31.80;92.90;;;;;;5000136;28;20061;-70
2022/06/30 10:54:28;;;;;;;6.75;3.90;;;31.70;92.60;;;;;;5017638;28;20042;-70
2022/06/30 10:56:56;;;;;;;5.53;4.00;;;31.30;91.90;;;;;;5000806;28;20064;-71
2022/06/30 10:59:43;;;;;;;4.50;3.13;;;30.90;92.30;;;;;;5017599;28;20104;-71
2022/06/30 11:02:13;;;;;;;7.63;3.92;;;30.80;93.10;;;;;;5017787;28;20045;-71
2022/06/30 11:04:48;;;;;;;6.75;3.53;;;30.70;93.10;;;;;;5000789;28;20034;-70
2022/06/30 11:07:24;;;;;;;7.93;4.05;;;30.50;93.20;;;;;;5000418;28;20446;-72
2022/06/30 11:09:55;;;;;;;7.13;3.58;;;30.20;93.20;;;;;;5000649;28;20046;-70
2022/06/30 11:12:29;;;;;;;5.72;3.90;;;30.10;93.80;;;;;;5017608;28;20042;-70
2022/06/30 11:14:57;;;;;;;7.00;3.67;;;30.20;93.70;;;;;;5017529;28;20045;-70
2022/06/30 11:17:25;;;;;;;7.15;4.05;;;30.20;93.70;;;;;;4999984;28;20164;-71
2022/06/30 11:20:02;;;;;;;5.28;3.55;;;30.00;93.30;;;;;;4999826;28;20045;-71
2022/06/30 11:22:29;;;;;;;8.88;3.80;;;29.90;93.30;;;;;;4999817;28;20111;-71
2022/06/30 11:25:07;;;;;;;6.13;3.63;;;29.80;93.80;;;;;;4984112;28;20077;-69
2022/06/30 11:27:36;;;;;;;7.97;3.90;;;29.70;94.40;;;;;;4999628;28;20038;-71
2022/06/30 11:30:07;;;;;;;6.25;4.57;;;29.70;94.20;;;;;;5016845;28;20455;-71
2022/06/30 11:32:36;;;;;;;6.03;3.95;;;29.60;94.30;;;;;;4999607;28;20037;-70
2022/06/30 11:35:03;;;;;;;6.97;4.03;;;29.60;93.90;;;;;;4983556;28;20042;-71
2022/06/30 11:37:30;;;;;;;6.47;3.83;;;29.60;93.90;;;;;;4999661;28;20490;-70
2022/06/30 11:40:08;;;;;;;5.30;3.85;;;29.70;94.20;;;;;;4999664;28;20045;-70
2022/06/30 11:42:34;;;;;;;4.35;3.20;;;29.80;94.00;;;;;;5016467;28;20042;-71
2022/06/30 11:45:15;;;;;;;6.57;3.53;;;30.00;94.40;;;;;;4983499;28;20038;-70
2022/06/30 11:47:42;;;;;;;6.38;3.67;;;30.40;94.50;;;;;;5017212;28;20038;-71
2022/06/30 11:50:08;;;;;;;7.97;3.65;;;30.70;94.10;;;;;;4999398;28;20095;-71
2022/06/30 11:52:37;;;;;;;4.75;2.95;;;30.70;93.30;;;;;;4999251;28;20061;-70
2022/06/30 11:55:12;;;;;;;5.95;2.88;;;30.80;93.50;;;;;;5000121;28;20053;-71
2022/06/30 11:57:45;;;;;;;7.78;2.70;;;30.50;92.90;;;;;;4998455;28;20041;-70
2022/06/30 12:00:16;;;;;;;5.40;3.33;;;30.60;93.60;;;;;;5016731;28;20370;-70
2022/06/30 12:02:44;;;;;;;5.10;3.20;;;30.90;93.40;;;;;;4999111;28;20122;-70
2022/06/30 12:05:13;;;;;;;6.57;3.47;;;31.20;93.50;;;;;;5016151;28;20041;-71
2022/06/30 12:07:40;;;;;;;4.40;2.80;;;31.30;92.70;;;;;;4998896;28;20490;-70
2022/06/30 12:10:08;;;;;;;4.50;3.13;;;31.50;93.20;;;;;;4998799;28;20121;-70
2022/06/30 12:12:36;;;;;;;5.03;3.03;;;31.80;92.40;;;;;;4998677;28;20478;-71
2022/06/30 12:15:12;;;;;;;4.88;2.72;;;31.90;92.60;;;;;;4998888;28;20041;-70
2022/06/30 12:17:42;;;;;;;7.93;2.38;;;32.20;91.90;;;;;;4998629;28;20370;-70
2022/06/30 12:20:13;;;;;;;7.25;2.88;;;32.10;91.20;;;;;;5016230;28;20451;-71
2022/06/30 12:22:47;;;;;;;7.90;3.00;;;32.40;90.80;;;;;;4982756;28;20396;-71
2022/06/30 12:25:14;;;;;;;5.53;2.53;;;32.50;90.00;;;;;;4981471;28;20050;-70
2022/06/30 12:27:56;;;;;;;6.68;2.67;;;32.70;91.30;;;;;;4998639;28;20054;-71
2022/06/30 12:30:25;;;;;;;5.95;3.17;;;32.60;91.00;;;;;;4998408;28;20037;-70
2022/06/30 12:32:58;;;;;;;5.38;2.60;;;32.40;90.60;;;;;;4981961;28;20052;-70
2022/06/30 12:35:30;;;;;;;7.25;2.75;;;32.40;90.80;;;;;;4999305;28;20429;-69
2022/06/30 12:37:56;;;;;;;8.80;3.22;;;32.40;90.70;;;;;;4982602;28;20050;-70
2022/06/30 12:40:25;;;;;;;4.95;2.67;;;32.30;90.80;;;;;;5015539;28;20045;-71
2022/06/30 12:42:57;;;;;;;6.30;2.63;;;32.50;91.00;;;;;;4998306;28;20050;-70
2022/06/30 12:45:45;;;;;;;5.93;3.05;;;32.50;90.70;;;;;;4998190;28;20070;-71
2022/06/30 12:48:12;;;;;;;5.28;2.72;;;32.50;90.20;;;;;;4998688;28;20363;-71
2022/06/30 12:50:41;;;;;;;4.85;2.40;;;32.20;90.60;;;;;;4998184;28;20058;-71
2022/06/30 12:53:22;;;;;;;5.78;2.58;;;32.30;90.70;;;;;;4997783;28;20088;-70
2022/06/30 12:56:02;;;;;;;4.03;2.42;;;32.40;91.20;;;;;;4995948;28;20097;-71
2022/06/30 12:58:42;;;;;;;6.57;2.60;;;32.70;91.40;;;;;;4996156;28;20049;-70
2022/06/30 13:01:09;;;;;;;4.70;2.58;;;32.70;90.50;;;;;;4978599;28;20121;-71
2022/06/30 13:04:05;;;;;;;3.63;2.33;;;32.60;90.80;;;;;;4978078;28;20475;-70